createdAt,value
2022-11-02T00:00:46.010Z,89
2022-11-02T00:01:50.284Z,89
2022-11-02T00:02:54.176Z,90
2022-11-02T00:03:58.213Z,89
2022-11-02T00:05:02.398Z,89
2022-11-02T00:06:06.989Z,89
2022-11-02T00:07:11.501Z,89
2022-11-02T00:08:15.545Z,89
2022-11-02T00:09:19.665Z,89
2022-11-02T00:10:23.846Z,89
2022-11-02T00:11:28.333Z,89
2022-11-02T00:12:32.310Z,89
2022-11-02T00:13:36.446Z,89
2022-11-02T00:14:40.603Z,89
2022-11-02T00:15:45.133Z,89
2022-11-02T00:16:49.702Z,89
2022-11-02T00:17:54.016Z,89
2022-11-02T00:19:00.929Z,90
2022-11-02T00:20:05.539Z,89
2022-11-02T00:21:10.112Z,89
2022-11-02T00:22:14.570Z,89
2022-11-02T00:23:18.609Z,89
2022-11-02T00:24:22.743Z,89
2022-11-02T00:25:26.883Z,89
2022-11-02T00:26:30.955Z,89
2022-11-02T00:27:35.349Z,89
2022-11-02T00:28:39.562Z,89
2022-11-02T00:29:43.578Z,88
2022-11-02T00:30:47.805Z,89
2022-11-02T00:31:52.297Z,89
2022-11-02T00:32:56.358Z,89
2022-11-02T00:34:00.459Z,89
2022-11-02T00:35:05.026Z,89
2022-11-02T00:36:09.689Z,89
2022-11-02T00:37:14.209Z,90
2022-11-02T00:38:18.326Z,89
2022-11-02T00:39:22.898Z,89
2022-11-02T00:40:27.030Z,89
2022-11-02T00:41:31.594Z,90
2022-11-02T00:42:35.982Z,89
2022-11-02T00:43:40.146Z,89
2022-11-02T00:44:44.638Z,89
2022-11-02T00:45:48.777Z,89
2022-11-02T00:46:53.510Z,89
2022-11-02T00:47:58.021Z,89
2022-11-02T00:49:02.474Z,89
2022-11-02T00:50:06.933Z,90
2022-11-02T00:51:11.172Z,90
2022-11-02T00:52:15.701Z,89
2022-11-02T00:53:19.841Z,89
2022-11-02T00:54:25.877Z,89
2022-11-02T00:55:28.455Z,89
2022-11-02T00:56:32.493Z,89
2022-11-02T00:57:36.545Z,89
2022-11-02T00:58:40.596Z,89
2022-11-02T00:59:44.725Z,89
2022-11-02T01:00:49.211Z,89
2022-11-02T01:01:53.464Z,89
2022-11-02T01:02:57.585Z,88
2022-11-02T01:04:02.013Z,89
2022-11-02T01:05:06.185Z,89
2022-11-02T01:06:11.134Z,88
2022-11-02T01:07:15.774Z,88
2022-11-02T01:08:20.338Z,88
2022-11-02T01:09:24.897Z,89
2022-11-02T01:10:29.361Z,89
2022-11-02T01:11:33.482Z,88
2022-11-02T01:12:38.058Z,89
2022-11-02T01:13:42.545Z,89
2022-11-02T01:14:46.676Z,89
2022-11-02T01:15:51.342Z,89
2022-11-02T01:16:55.747Z,89
2022-11-02T01:17:59.906Z,89
2022-11-02T01:19:04.537Z,89
2022-11-02T01:20:09.027Z,89
2022-11-02T01:21:13.595Z,89
2022-11-02T01:22:17.759Z,89
2022-11-02T01:23:21.878Z,89
2022-11-02T01:24:26.394Z,89
2022-11-02T01:25:31.009Z,89
2022-11-02T01:26:35.677Z,89
2022-11-02T01:27:40.185Z,90
2022-11-02T01:28:44.724Z,90
2022-11-02T01:29:48.761Z,89
2022-11-02T01:30:52.905Z,89
2022-11-02T01:31:57.486Z,89
2022-11-02T01:33:01.543Z,90
2022-11-02T01:34:06.099Z,90
2022-11-02T01:35:10.167Z,90
2022-11-02T01:36:14.269Z,90
2022-11-02T01:37:18.377Z,90
2022-11-02T01:38:22.882Z,90
2022-11-02T01:39:27.117Z,90
2022-11-02T01:40:31.547Z,90
2022-11-02T01:41:36.141Z,90
2022-11-02T01:42:40.780Z,90
2022-11-02T01:43:45.333Z,90
2022-11-02T01:44:49.357Z,90
2022-11-02T01:45:53.549Z,90
2022-11-02T01:47:00.536Z,90
2022-11-02T01:48:04.767Z,90
2022-11-02T01:49:08.817Z,90
2022-11-02T01:50:13.313Z,90
2022-11-02T01:51:20.390Z,90
2022-11-02T01:52:32.558Z,90
2022-11-02T01:53:36.669Z,89
2022-11-02T01:54:40.745Z,90
2022-11-02T01:55:50.438Z,90
2022-11-02T01:56:54.961Z,90
2022-11-02T01:57:59.033Z,90
2022-11-02T01:59:03.238Z,90
2022-11-02T02:00:07.787Z,90
2022-11-02T02:01:12.400Z,90
2022-11-02T02:02:17.012Z,90
2022-11-02T02:03:21.005Z,90
2022-11-02T02:04:25.058Z,90
2022-11-02T02:05:29.198Z,90
2022-11-02T02:06:33.257Z,90
2022-11-02T02:07:37.701Z,90
2022-11-02T02:08:41.826Z,90
2022-11-02T02:09:47.235Z,90
2022-11-02T02:10:50.005Z,90
2022-11-02T02:11:57.094Z,90
2022-11-02T02:13:01.209Z,90
2022-11-02T02:14:05.218Z,90
2022-11-02T02:15:09.276Z,90
2022-11-02T02:16:13.402Z,90
2022-11-02T02:17:20.557Z,90
2022-11-02T02:18:27.721Z,90
2022-11-02T02:19:35.245Z,90
2022-11-02T02:20:44.748Z,90
2022-11-02T02:21:49.025Z,90
2022-11-02T02:23:03.600Z,90
2022-11-02T02:24:18.404Z,90
2022-11-02T02:25:28.681Z,90
2022-11-02T02:26:38.246Z,90
2022-11-02T02:27:48.054Z,90
2022-11-02T02:29:02.816Z,90
2022-11-02T02:30:07.229Z,90
2022-11-02T02:31:11.484Z,90
2022-11-02T02:32:18.445Z,90
2022-11-02T02:33:26.091Z,90
2022-11-02T02:34:30.189Z,90
2022-11-02T02:35:39.673Z,90
2022-11-02T02:36:49.861Z,90
2022-11-02T02:37:54.009Z,90
2022-11-02T02:38:58.429Z,90
2022-11-02T02:40:07.641Z,90
2022-11-02T02:41:14.951Z,90
2022-11-02T02:42:29.649Z,90
2022-11-02T02:43:41.768Z,90
2022-11-02T02:44:48.310Z,90
2022-11-02T02:46:00.486Z,90
2022-11-02T02:47:07.622Z,90
2022-11-02T02:48:11.854Z,90
2022-11-02T02:49:16.299Z,90
2022-11-02T02:50:20.818Z,90
2022-11-02T02:51:27.571Z,90
2022-11-02T02:52:31.700Z,90
2022-11-02T02:53:36.319Z,90
2022-11-02T02:54:40.872Z,90
2022-11-02T02:55:45.305Z,90
2022-11-02T02:56:49.336Z,90
2022-11-02T02:57:53.374Z,90
2022-11-02T02:58:57.526Z,90
2022-11-02T03:00:01.818Z,90
2022-11-02T03:01:06.067Z,90
2022-11-02T03:02:10.303Z,90
2022-11-02T03:03:14.241Z,90
2022-11-02T03:04:18.402Z,90
2022-11-02T03:05:22.348Z,90
2022-11-02T03:06:26.553Z,90
2022-11-02T03:07:34.356Z,90
2022-11-02T03:08:38.189Z,90
2022-11-02T03:09:42.229Z,90
2022-11-02T03:10:51.474Z,90
2022-11-02T03:12:03.793Z,90
2022-11-02T03:13:15.741Z,90
2022-11-02T03:14:30.019Z,90
2022-11-02T03:15:42.232Z,90
2022-11-02T03:16:51.394Z,90
2022-11-02T03:18:05.953Z,90
2022-11-02T03:19:20.411Z,90
2022-11-02T03:20:29.989Z,90
2022-11-02T03:21:44.762Z,90
2022-11-02T03:22:48.821Z,90
2022-11-02T03:23:53.466Z,90
2022-11-02T03:25:03.003Z,90
2022-11-02T03:26:15.296Z,90
2022-11-02T03:27:22.553Z,90
2022-11-02T03:28:32.125Z,90
2022-11-02T03:29:46.794Z,90
2022-11-02T03:30:59.025Z,90
2022-11-02T03:32:08.205Z,90
2022-11-02T03:33:23.153Z,90
2022-11-02T03:34:27.136Z,91
2022-11-02T03:35:39.841Z,90
2022-11-02T03:36:43.958Z,90
2022-11-02T03:37:48.965Z,91
2022-11-02T03:39:01.157Z,91
2022-11-02T03:40:05.293Z,91
2022-11-02T03:41:12.403Z,90
2022-11-02T03:42:16.488Z,91
2022-11-02T03:43:23.665Z,90
2022-11-02T03:44:28.264Z,91
2022-11-02T03:45:32.273Z,90
2022-11-02T03:46:36.364Z,90
2022-11-02T03:47:40.901Z,90
2022-11-02T03:48:45.021Z,90
2022-11-02T03:49:49.128Z,90
2022-11-02T03:50:53.109Z,90
2022-11-02T03:51:57.204Z,90
2022-11-02T03:53:01.466Z,91
2022-11-02T03:54:08.774Z,90
2022-11-02T03:55:13.233Z,90
2022-11-02T03:56:20.262Z,90
2022-11-02T03:57:32.978Z,90
2022-11-02T03:58:39.930Z,90
2022-11-02T03:59:44.135Z,90
2022-11-02T04:00:48.601Z,90
2022-11-02T04:01:58.491Z,90
2022-11-02T04:03:02.856Z,90
2022-11-02T04:04:09.942Z,90
2022-11-02T04:05:14.050Z,90
2022-11-02T04:06:18.595Z,90
2022-11-02T04:07:23.076Z,89
2022-11-02T04:08:27.195Z,89
2022-11-02T04:09:36.783Z,89
2022-11-02T04:10:40.872Z,89
2022-11-02T04:11:49.964Z,89
2022-11-02T04:12:59.217Z,89
2022-11-02T04:14:08.391Z,89
2022-11-02T04:15:18.109Z,89
2022-11-02T04:16:26.601Z,88
2022-11-02T04:17:26.872Z,88
2022-11-02T04:18:36.309Z,88
2022-11-02T04:19:47.123Z,88
2022-11-02T04:20:49.727Z,88
2022-11-02T04:21:54.041Z,88
2022-11-02T04:23:03.289Z,88
2022-11-02T04:24:13.122Z,88
2022-11-02T04:25:22.559Z,88
2022-11-02T04:26:26.821Z,88
2022-11-02T04:27:31.329Z,88
2022-11-02T04:28:35.396Z,88
2022-11-02T04:29:39.549Z,89
2022-11-02T04:30:43.993Z,89
2022-11-02T04:31:48.109Z,89
2022-11-02T04:32:52.701Z,89
2022-11-02T04:34:02.317Z,89
2022-11-02T04:35:06.471Z,89
2022-11-02T04:36:10.508Z,89
2022-11-02T04:37:15.085Z,89
2022-11-02T04:38:24.607Z,89
2022-11-02T04:39:33.941Z,89
2022-11-02T04:40:38.413Z,90
2022-11-02T04:41:42.525Z,90
2022-11-02T04:42:47.120Z,89
2022-11-02T04:43:51.080Z,90
2022-11-02T04:44:55.305Z,89
2022-11-02T04:45:59.374Z,89
2022-11-02T04:47:03.937Z,89
2022-11-02T04:48:08.484Z,89
2022-11-02T04:49:12.545Z,89
2022-11-02T04:50:17.330Z,89
2022-11-02T04:51:21.658Z,89
2022-11-02T04:52:25.682Z,89
2022-11-02T04:53:29.776Z,89
2022-11-02T04:54:33.860Z,89
2022-11-02T04:55:38.012Z,89
2022-11-02T04:56:42.480Z,89
2022-11-02T04:57:47.169Z,90
2022-11-02T04:58:51.829Z,89
2022-11-02T04:59:56.244Z,89
2022-11-02T05:01:00.280Z,88
2022-11-02T05:02:12.831Z,88
2022-11-02T05:03:17.102Z,88
2022-11-02T05:04:21.292Z,89
2022-11-02T05:05:25.880Z,89
2022-11-02T05:06:30.325Z,90
2022-11-02T05:07:34.504Z,89
2022-11-02T05:08:39.009Z,89
2022-11-02T05:09:43.172Z,89
2022-11-02T05:10:47.625Z,89
2022-11-02T05:11:51.788Z,89
2022-11-02T05:12:56.293Z,90
2022-11-02T05:14:00.458Z,90
2022-11-02T05:15:04.569Z,90
2022-11-02T05:16:09.065Z,90
2022-11-02T05:17:13.174Z,90
2022-11-02T05:18:19.181Z,90
2022-11-02T05:19:22.341Z,89
2022-11-02T05:20:27.057Z,90
2022-11-02T05:21:31.773Z,90
2022-11-02T05:22:36.274Z,90
2022-11-02T05:23:44.185Z,90
2022-11-02T05:24:48.801Z,90
2022-11-02T05:25:53.280Z,90
2022-11-02T05:27:00.441Z,89
2022-11-02T05:28:04.617Z,89
2022-11-02T05:29:09.168Z,89
2022-11-02T05:30:13.853Z,90
2022-11-02T05:31:18.305Z,89
2022-11-02T05:32:23.308Z,89
2022-11-02T05:33:30.478Z,90
2022-11-02T05:34:31.649Z,90
2022-11-02T05:35:36.013Z,90
2022-11-02T05:36:40.172Z,90
2022-11-02T05:37:44.824Z,89
2022-11-02T05:38:49.417Z,90
2022-11-02T05:39:53.957Z,90
2022-11-02T05:40:58.521Z,90
2022-11-02T05:42:03.130Z,90
2022-11-02T05:43:07.955Z,90
2022-11-02T05:44:12.181Z,90
2022-11-02T05:45:19.317Z,90
2022-11-02T05:46:20.830Z,90
2022-11-02T05:47:25.521Z,90
2022-11-02T05:48:30.068Z,90
2022-11-02T05:49:34.848Z,90
2022-11-02T05:50:39.085Z,90
2022-11-02T05:51:43.124Z,90
2022-11-02T05:52:47.224Z,90
2022-11-02T05:53:51.404Z,90
2022-11-02T05:54:55.916Z,90
2022-11-02T05:56:00.524Z,90
2022-11-02T05:57:05.216Z,90
2022-11-02T05:58:09.652Z,90
2022-11-02T05:59:13.768Z,90
2022-11-02T06:00:18.264Z,90
2022-11-02T06:01:22.434Z,90
2022-11-02T06:02:26.637Z,90
2022-11-02T06:03:31.173Z,90
2022-11-02T06:04:36.078Z,90
2022-11-02T06:05:40.561Z,90
2022-11-02T06:06:44.672Z,91
2022-11-02T06:07:48.813Z,91
2022-11-02T06:08:52.910Z,90
2022-11-02T06:09:57.589Z,91
2022-11-02T06:11:02.101Z,90
2022-11-02T06:12:09.716Z,90
2022-11-02T06:13:14.254Z,90
2022-11-02T06:14:18.326Z,90
2022-11-02T06:15:22.533Z,90
2022-11-02T06:16:27.048Z,90
2022-11-02T06:17:31.593Z,91
2022-11-02T06:18:41.229Z,90
2022-11-02T06:19:45.268Z,91
2022-11-02T06:20:49.505Z,91
2022-11-02T06:21:53.889Z,91
2022-11-02T06:22:58.044Z,91
2022-11-02T06:24:02.828Z,91
2022-11-02T06:25:07.331Z,91
2022-11-02T06:26:11.908Z,90
2022-11-02T06:27:16.360Z,90
2022-11-02T06:28:20.454Z,90
2022-11-02T06:29:24.916Z,90
2022-11-02T06:30:29.190Z,90
2022-11-02T06:31:33.744Z,89
2022-11-02T06:32:38.206Z,89
2022-11-02T06:33:42.625Z,90
2022-11-02T06:34:47.025Z,89
2022-11-02T06:35:51.825Z,89
2022-11-02T06:36:56.076Z,89
2022-11-02T06:38:00.322Z,90
2022-11-02T06:39:04.880Z,90
2022-11-02T06:40:09.411Z,90
2022-11-02T06:41:13.876Z,90
2022-11-02T06:42:17.916Z,90
2022-11-02T06:43:22.571Z,90
2022-11-02T06:44:26.676Z,90
2022-11-02T06:45:31.184Z,90
2022-11-02T06:46:35.379Z,90
2022-11-02T06:47:39.963Z,90
2022-11-02T06:48:44.451Z,90
2022-11-02T06:49:49.088Z,90
2022-11-02T06:50:53.737Z,90
2022-11-02T06:51:58.228Z,90
2022-11-02T06:53:03.195Z,90
2022-11-02T06:54:08.719Z,90
2022-11-02T06:55:11.300Z,90
2022-11-02T06:56:15.504Z,90
2022-11-02T06:57:19.996Z,90
2022-11-02T06:58:24.196Z,90
2022-11-02T06:59:28.860Z,90
2022-11-02T07:00:33.519Z,89
2022-11-02T07:01:38.014Z,89
2022-11-02T07:02:42.161Z,89
2022-11-02T07:03:46.499Z,89
2022-11-02T07:04:50.596Z,89
2022-11-02T07:05:55.164Z,88
2022-11-02T07:06:59.255Z,88
2022-11-02T07:08:03.472Z,88
2022-11-02T07:09:07.885Z,88
2022-11-02T07:10:12.402Z,88
2022-11-02T07:11:17.076Z,89
2022-11-02T07:12:23.125Z,89
2022-11-02T07:13:25.180Z,88
2022-11-02T07:14:29.719Z,89
2022-11-02T07:15:33.760Z,89
2022-11-02T07:16:37.740Z,88
2022-11-02T07:17:42.011Z,88
2022-11-02T07:18:46.489Z,88
2022-11-02T07:19:51.144Z,88
2022-11-02T07:20:55.664Z,88
2022-11-02T07:22:00.280Z,88
2022-11-02T07:23:05.350Z,88
2022-11-02T07:24:09.405Z,88
2022-11-02T07:25:13.910Z,88
2022-11-02T07:26:18.252Z,88
2022-11-02T07:27:22.657Z,87
2022-11-02T07:28:27.291Z,88
2022-11-02T07:29:31.500Z,88
2022-11-02T07:30:35.880Z,88
2022-11-02T07:31:40.588Z,88
2022-11-02T07:32:45.107Z,88
2022-11-02T07:33:49.635Z,88
2022-11-02T07:34:54.137Z,88
2022-11-02T07:35:58.252Z,89
2022-11-02T07:37:02.803Z,89
2022-11-02T07:38:06.920Z,89
2022-11-02T07:39:10.945Z,90
2022-11-02T07:40:15.080Z,90
2022-11-02T07:41:19.628Z,89
2022-11-02T07:42:23.819Z,90
2022-11-02T07:43:28.304Z,90
2022-11-02T07:44:32.596Z,89
2022-11-02T07:45:37.075Z,89
2022-11-02T07:46:41.561Z,90
2022-11-02T07:47:45.652Z,89
2022-11-02T07:48:50.353Z,90
2022-11-02T07:49:54.853Z,90
2022-11-02T07:50:59.467Z,89
2022-11-02T07:52:04.049Z,89
2022-11-02T07:53:08.683Z,89
2022-11-02T07:54:12.766Z,89
2022-11-02T07:55:17.331Z,88
2022-11-02T07:56:21.892Z,89
2022-11-02T07:57:26.450Z,89
2022-11-02T07:58:30.600Z,89
2022-11-02T07:59:35.032Z,88
2022-11-02T08:00:39.239Z,89
2022-11-02T08:01:43.806Z,88
2022-11-02T08:02:47.879Z,88
2022-11-02T08:03:57.561Z,89
2022-11-02T08:05:02.040Z,89
2022-11-02T08:06:06.771Z,89
2022-11-02T08:07:11.362Z,89
2022-11-02T08:08:15.892Z,88
2022-11-02T08:09:19.881Z,88
2022-11-02T08:10:24.048Z,88
2022-11-02T08:11:28.588Z,88
2022-11-02T08:12:32.680Z,88
2022-11-02T08:13:36.797Z,88
2022-11-02T08:14:41.425Z,88
2022-11-02T08:15:45.888Z,88
2022-11-02T08:16:50.053Z,88
2022-11-02T08:17:54.186Z,89
2022-11-02T08:19:08.979Z,88
2022-11-02T08:20:13.412Z,88
2022-11-02T08:21:17.604Z,88
2022-11-02T08:22:22.260Z,88
2022-11-02T08:23:26.716Z,88
2022-11-02T08:24:30.783Z,88
2022-11-02T08:25:35.372Z,88
2022-11-02T08:26:39.847Z,87
2022-11-02T08:27:44.080Z,87
2022-11-02T08:28:48.712Z,87
2022-11-02T08:29:53.300Z,87
2022-11-02T08:30:57.888Z,88
2022-11-02T08:32:02.472Z,87
2022-11-02T08:33:07.068Z,87
2022-11-02T08:34:11.561Z,87
2022-11-02T08:35:15.688Z,87
2022-11-02T08:36:19.824Z,87
2022-11-02T08:37:24.340Z,87
2022-11-02T08:38:28.484Z,87
2022-11-02T08:39:33.224Z,87
2022-11-02T08:40:37.488Z,87
2022-11-02T08:41:41.631Z,87
2022-11-02T08:42:45.748Z,87
2022-11-02T08:43:50.689Z,87
2022-11-02T08:44:54.963Z,86
2022-11-02T08:46:16.313Z,86
2022-11-02T08:47:05.458Z,86
2022-11-02T08:48:08.303Z,86
2022-11-02T08:49:12.870Z,86
2022-11-02T08:50:17.357Z,86
2022-11-02T08:51:22.196Z,86
2022-11-02T08:52:26.517Z,86
2022-11-02T08:53:30.584Z,86
2022-11-02T08:54:34.928Z,86
2022-11-02T08:55:39.345Z,86
2022-11-02T08:56:43.783Z,85
2022-11-02T08:57:47.930Z,85
2022-11-02T08:58:52.481Z,85
2022-11-02T08:59:57.100Z,85
2022-11-02T09:01:01.933Z,85
2022-11-02T09:02:06.421Z,85
2022-11-02T09:03:10.880Z,84
2022-11-02T09:04:15.476Z,85
2022-11-02T09:05:19.937Z,84
2022-11-02T09:06:24.216Z,84
2022-11-02T09:07:28.719Z,84
2022-11-02T09:08:33.218Z,84
2022-11-02T09:09:37.759Z,84
2022-11-02T09:10:41.807Z,84
2022-11-02T09:11:48.945Z,84
2022-11-02T09:12:53.491Z,84
2022-11-02T09:13:57.629Z,84
2022-11-02T09:15:01.659Z,84
2022-11-02T09:16:06.238Z,84
2022-11-02T09:17:10.500Z,83
2022-11-02T09:18:14.869Z,83
2022-11-02T09:19:18.996Z,83
2022-11-02T09:20:23.590Z,83
2022-11-02T09:21:28.140Z,83
2022-11-02T09:22:32.732Z,83
2022-11-02T09:23:36.828Z,83
2022-11-02T09:24:41.388Z,82
2022-11-02T09:25:45.928Z,82
2022-11-02T09:26:49.964Z,82
2022-11-02T09:27:55.505Z,82
2022-11-02T09:28:58.638Z,82
2022-11-02T09:30:03.054Z,82
2022-11-02T09:31:08.999Z,82
2022-11-02T09:32:11.932Z,82
2022-11-02T09:33:16.440Z,82
2022-11-02T09:34:20.616Z,82
2022-11-02T09:35:25.080Z,82
2022-11-02T09:36:29.154Z,82
2022-11-02T09:37:33.256Z,81
2022-11-02T09:38:37.367Z,81
2022-11-02T09:39:41.934Z,81
2022-11-02T09:40:46.460Z,81
2022-11-02T09:41:53.656Z,82
2022-11-02T09:42:57.720Z,81
2022-11-02T09:44:07.404Z,81
2022-11-02T09:45:17.223Z,81
2022-11-02T09:46:21.660Z,80
2022-11-02T09:48:03.297Z,80
2022-11-02T09:48:30.660Z,80
2022-11-02T09:49:37.590Z,80
2022-11-02T09:50:42.108Z,80
2022-11-02T09:51:49.433Z,80
2022-11-02T09:52:53.735Z,80
2022-11-02T09:53:57.824Z,80
2022-11-02T09:55:12.548Z,80
2022-11-02T09:56:17.100Z,80
2022-11-02T09:57:21.808Z,80
2022-11-02T09:58:28.791Z,81
2022-11-02T09:59:39.025Z,81
2022-11-02T10:00:43.687Z,80
2022-11-02T10:01:48.209Z,81
2022-11-02T10:02:52.872Z,81
2022-11-02T10:04:04.974Z,80
2022-11-02T10:05:19.768Z,80
2022-11-02T10:06:34.584Z,80
2022-11-02T10:07:39.140Z,79
2022-11-02T10:08:53.940Z,79
2022-11-02T10:10:06.005Z,79
2022-11-02T10:11:18.660Z,79
2022-11-02T10:12:33.436Z,79
2022-11-02T10:13:38.029Z,80
2022-11-02T10:14:45.172Z,80
2022-11-02T10:15:54.691Z,79
2022-11-02T10:17:01.908Z,79
2022-11-02T10:18:11.696Z,79
2022-11-02T10:19:30.209Z,79
2022-11-02T10:20:30.900Z,78
2022-11-02T10:21:40.476Z,79
2022-11-02T10:22:45.584Z,79
2022-11-02T10:23:50.229Z,79
2022-11-02T10:24:54.720Z,78
2022-11-02T10:25:59.064Z,79
2022-11-02T10:27:03.466Z,79
2022-11-02T10:28:07.635Z,79
2022-11-02T10:29:17.261Z,79
2022-11-02T10:30:26.892Z,79
2022-11-02T10:31:31.223Z,79
2022-11-02T10:32:35.628Z,79
2022-11-02T10:33:40.188Z,78
2022-11-02T10:34:47.650Z,78
2022-11-02T10:36:12.343Z,78
2022-11-02T10:37:03.631Z,77
2022-11-02T10:38:18.399Z,77
2022-11-02T10:39:28.135Z,77
2022-11-02T10:40:37.700Z,77
2022-11-02T10:41:47.316Z,77
2022-11-02T10:42:56.542Z,76
2022-11-02T10:44:08.761Z,76
2022-11-02T10:45:13.179Z,76
2022-11-02T10:46:20.396Z,76
2022-11-02T10:47:30.172Z,75
2022-11-02T10:48:34.831Z,76
2022-11-02T10:49:44.281Z,76
2022-11-02T10:50:53.999Z,76
2022-11-02T10:52:06.269Z,76
2022-11-02T10:53:41.401Z,76
2022-11-02T10:54:22.810Z,75
2022-11-02T10:55:24.639Z,75
2022-11-02T10:56:37.332Z,75
2022-11-02T10:57:44.545Z,75
2022-11-02T10:58:49.000Z,75
2022-11-02T10:59:56.862Z,75
2022-11-02T11:01:11.205Z,75
2022-11-02T11:02:15.494Z,75
2022-11-02T11:03:20.093Z,75
2022-11-02T11:04:24.610Z,75
2022-11-02T11:05:28.723Z,74
2022-11-02T11:06:33.211Z,74
2022-11-02T11:07:37.479Z,74
2022-11-02T11:08:42.439Z,74
2022-11-02T11:09:47.456Z,75
2022-11-02T11:10:54.548Z,75
2022-11-02T11:12:09.316Z,74
2022-11-02T11:16:32.802Z,73
2022-11-02T11:19:44.983Z,72
2022-11-02T11:20:49.595Z,73
2022-11-02T11:21:54.146Z,73
2022-11-02T11:22:58.611Z,73
2022-11-02T11:24:08.419Z,73
2022-11-02T11:25:12.924Z,73
2022-11-02T11:26:19.973Z,73
2022-11-02T11:27:27.159Z,72
2022-11-02T11:28:31.848Z,73
2022-11-02T11:29:39.843Z,73
2022-11-02T11:31:05.598Z,73
2022-11-02T11:32:02.850Z,73
2022-11-02T11:33:07.279Z,74
2022-11-02T11:34:16.880Z,73
2022-11-02T11:35:24.287Z,73
2022-11-02T11:36:37.028Z,72
2022-11-02T11:37:42.040Z,72
2022-11-02T11:38:51.659Z,72
2022-11-02T11:39:56.304Z,72
2022-11-02T11:41:09.031Z,73
2022-11-02T11:42:13.485Z,73
2022-11-02T11:43:17.571Z,73
2022-11-02T11:44:25.250Z,72
2022-11-02T11:45:29.395Z,72
2022-11-02T11:46:33.947Z,72
2022-11-02T11:47:41.078Z,70
2022-11-02T11:48:45.556Z,70
2022-11-02T11:50:21.484Z,70
2022-11-02T11:50:53.700Z,69
2022-11-02T11:51:58.299Z,69
2022-11-02T11:53:03.117Z,70
2022-11-02T11:54:17.498Z,70
2022-11-02T11:55:26.726Z,70
2022-11-02T11:56:30.975Z,70
2022-11-02T11:57:35.347Z,69
2022-11-02T11:58:39.636Z,69
2022-11-02T11:59:44.082Z,69
2022-11-02T12:00:48.583Z,67
2022-11-02T12:02:04.110Z,66
2022-11-02T12:03:08.577Z,68
2022-11-02T12:04:12.060Z,68
2022-11-02T12:05:16.217Z,69
2022-11-02T12:06:20.623Z,68
2022-11-02T12:07:35.424Z,68
2022-11-02T12:08:47.615Z,68
2022-11-02T12:09:59.771Z,68
2022-11-02T12:11:16.343Z,68
2022-11-02T12:12:21.803Z,68
2022-11-02T12:13:36.502Z,68
2022-11-02T12:14:48.677Z,67
2022-11-02T12:16:03.379Z,68
2022-11-02T12:17:15.607Z,68
2022-11-02T12:18:27.924Z,69
2022-11-02T12:19:37.575Z,67
2022-11-02T12:20:47.187Z,67
2022-11-02T12:22:01.946Z,67
2022-11-02T12:23:11.699Z,67
2022-11-02T12:24:26.402Z,67
2022-11-02T12:25:41.156Z,67
2022-11-02T12:26:55.926Z,67
2022-11-02T12:28:05.851Z,67
2022-11-02T12:29:18.267Z,66
2022-11-02T12:30:30.185Z,67
2022-11-02T12:31:44.703Z,67
2022-11-02T12:32:54.318Z,66
2022-11-02T12:34:06.591Z,66
2022-11-02T12:35:34.281Z,67
2022-11-02T12:36:31.286Z,67
2022-11-02T12:37:45.766Z,67
2022-11-02T12:39:00.022Z,67
2022-11-02T12:40:09.152Z,68
2022-11-02T12:41:19.383Z,66
2022-11-02T12:42:26.509Z,66
2022-11-02T12:43:30.586Z,67
2022-11-02T12:44:40.658Z,67
2022-11-02T12:45:52.526Z,67
2022-11-02T12:47:05.294Z,68
2022-11-02T12:48:14.862Z,68
2022-11-02T12:49:21.926Z,68
2022-11-02T12:50:34.159Z,68
2022-11-02T12:51:48.973Z,68
2022-11-02T12:52:58.735Z,68
2022-11-02T12:54:08.222Z,68
2022-11-02T12:55:16.834Z,68
2022-11-02T12:56:16.919Z,68
2022-11-02T12:57:24.079Z,68
2022-11-02T12:58:28.238Z,68
2022-11-02T12:59:35.258Z,68
2022-11-02T13:00:39.760Z,68
2022-11-02T13:01:44.154Z,69
2022-11-02T13:02:48.437Z,69
2022-11-02T13:04:03.242Z,69
2022-11-02T13:05:15.395Z,69
2022-11-02T13:06:19.674Z,70
2022-11-02T13:07:27.363Z,71
2022-11-02T13:08:39.306Z,70
2022-11-02T13:09:51.426Z,70
2022-11-02T13:11:01.210Z,71
2022-11-02T13:12:05.398Z,70
2022-11-02T13:13:12.891Z,70
2022-11-02T13:14:17.055Z,71
2022-11-02T13:15:21.666Z,71
2022-11-02T13:16:26.170Z,71
2022-11-02T13:17:39.026Z,71
2022-11-02T13:18:45.902Z,71
2022-11-02T13:19:53.087Z,70
2022-11-02T13:21:00.271Z,71
2022-11-02T13:22:04.918Z,71
2022-11-02T13:23:09.355Z,70
2022-11-02T13:24:16.463Z,70
2022-11-02T13:25:20.454Z,69
2022-11-02T13:26:29.662Z,69
2022-11-02T13:27:36.236Z,69
2022-11-02T13:28:38.230Z,69
2022-11-02T13:29:45.462Z,70
2022-11-02T13:30:49.692Z,69
2022-11-02T13:31:53.882Z,69
2022-11-02T13:33:01.005Z,70
2022-11-02T13:34:05.270Z,70
2022-11-02T13:35:09.363Z,70
2022-11-02T13:36:13.899Z,70
2022-11-02T13:37:18.071Z,70
2022-11-02T13:38:32.916Z,70
2022-11-02T13:39:43.036Z,69
2022-11-02T13:40:46.976Z,70
2022-11-02T13:41:56.214Z,70
2022-11-02T13:43:06.304Z,70
2022-11-02T13:44:18.146Z,70
2022-11-02T13:46:45.008Z,69
2022-11-02T13:47:52.210Z,69
2022-11-02T13:48:59.555Z,69
2022-11-02T13:50:09.119Z,69
2022-11-02T13:51:13.872Z,69
2022-11-02T13:52:21.190Z,69
2022-11-02T13:53:35.945Z,69
2022-11-02T13:54:40.088Z,69
2022-11-02T13:55:47.179Z,69
2022-11-02T13:56:52.057Z,69
2022-11-02T13:57:56.388Z,69
2022-11-02T13:59:00.926Z,69
2022-11-02T14:00:08.117Z,69
2022-11-02T14:01:22.849Z,69
2022-11-02T14:02:27.493Z,69
2022-11-02T14:03:31.854Z,69
2022-11-02T14:04:46.712Z,69
2022-11-02T14:05:51.586Z,69
2022-11-02T14:06:58.974Z,70
2022-11-02T14:08:03.929Z,70
2022-11-02T14:09:08.244Z,69
2022-11-02T14:10:12.977Z,69
2022-11-02T14:11:17.366Z,70
2022-11-02T14:12:21.894Z,69
2022-11-02T14:13:26.531Z,69
2022-11-02T14:14:41.330Z,70
2022-11-02T14:15:45.887Z,70
2022-11-02T14:16:50.681Z,70
2022-11-02T14:17:55.007Z,70
2022-11-02T14:19:05.740Z,70
2022-11-02T14:20:16.826Z,70
2022-11-02T14:21:31.791Z,70
2022-11-02T14:22:41.402Z,71
2022-11-02T14:23:45.829Z,71
2022-11-02T14:24:49.981Z,71
2022-11-02T14:25:54.592Z,71
2022-11-02T14:27:01.724Z,71
2022-11-02T14:28:11.654Z,71
2022-11-02T14:29:23.638Z,71
2022-11-02T14:30:38.318Z,72
2022-11-02T14:31:42.901Z,72
2022-11-02T14:32:46.972Z,72
2022-11-02T14:33:54.159Z,72
2022-11-02T14:35:04.564Z,72
2022-11-02T14:36:18.931Z,72
2022-11-02T14:37:28.639Z,72
2022-11-02T14:38:43.791Z,72
2022-11-02T14:39:56.307Z,73
2022-11-02T14:41:05.854Z,72
2022-11-02T14:42:16.166Z,73
2022-11-02T14:43:28.537Z,73
2022-11-02T14:44:41.398Z,73
2022-11-02T14:45:56.105Z,74
2022-11-02T14:47:08.287Z,73
2022-11-02T14:48:12.868Z,73
2022-11-02T14:49:17.580Z,73
2022-11-02T14:50:22.438Z,74
2022-11-02T14:51:26.496Z,74
2022-11-02T14:52:30.705Z,74
2022-11-02T14:53:35.359Z,74
2022-11-02T14:54:40.235Z,75
2022-11-02T14:55:53.475Z,75
2022-11-02T14:56:57.706Z,75
2022-11-02T14:58:10.771Z,75
2022-11-02T14:59:17.202Z,75
2022-11-02T15:00:24.922Z,75
2022-11-02T15:01:34.454Z,75
2022-11-02T15:02:40.492Z,75
2022-11-02T15:03:43.481Z,75
2022-11-02T15:04:47.742Z,74
2022-11-02T15:05:52.274Z,75
2022-11-02T15:07:02.138Z,74
2022-11-02T15:08:06.521Z,75
2022-11-02T15:09:16.186Z,74
2022-11-02T15:10:31.055Z,75
2022-11-02T15:11:35.528Z,75
2022-11-02T15:12:42.986Z,75
2022-11-02T15:13:47.239Z,75
2022-11-02T15:14:51.827Z,75
2022-11-02T15:15:56.292Z,77
2022-11-02T15:17:02.088Z,76
2022-11-02T15:18:11.562Z,75
2022-11-02T15:19:21.179Z,75
2022-11-02T15:20:36.032Z,75
2022-11-02T15:21:40.187Z,75
2022-11-02T15:22:44.803Z,75
2022-11-02T15:23:49.300Z,75
2022-11-02T15:25:02.858Z,74
2022-11-02T15:26:10.348Z,75
2022-11-02T15:27:17.348Z,75
2022-11-02T15:28:21.722Z,75
2022-11-02T15:29:25.846Z,75
2022-11-02T15:30:38.366Z,75
2022-11-02T15:31:45.370Z,75
2022-11-02T15:32:50.025Z,76
2022-11-02T15:33:54.782Z,76
2022-11-02T15:34:59.258Z,76
2022-11-02T15:36:03.530Z,75
2022-11-02T15:37:08.262Z,76
2022-11-02T15:38:17.714Z,75
2022-11-02T15:39:17.387Z,75
2022-11-02T15:40:22.306Z,75
2022-11-02T15:41:29.713Z,76
2022-11-02T15:42:39.475Z,75
2022-11-02T15:43:43.989Z,76
2022-11-02T15:44:53.699Z,76
2022-11-02T15:46:09.570Z,76
2022-11-02T15:47:21.026Z,76
2022-11-02T15:48:34.627Z,76
2022-11-02T15:49:44.890Z,76
2022-11-02T15:50:59.635Z,76